Dumont, New Jersey
Current Conditions -  °F | °C
As of 8:36 PM on Tuesday 21 Oct 2014 (Local Time) from KTEB Reporting Station
Thunderstorm Thunderstorm  
Wind Chill: 57°   Ceiling: 3800
Heat Index: 57°   Visibility: 9mi
Dew Point: 54°   Wind: 8mph
Humidity: 88%   Direction: 330°NNW
Pressure: 29.89"   Gusts: NA
Location:  40.94°N, 73.99°W
Report Text: KTEB 220036Z 33007KT 9SM -TSRA FEW008 SCT027 OVC038 14/12 A2989 RMK AO2 TSB36 LTGICCCCACG OHD P0002
Loading
Personal Weather Stations






























Interactive Weather Map
Tropical Storm Tracking
New forecast layout! Learn more

10-Day Weather Forecast

Advertisements
Track Severe Weather on mobile